Time;durP1;ratioP1;P1;durP2;ratioP2;P2;SDS_P1;SDS_P2;PMS_P1;PMS_P2;Temp;Humidity;BMP_temperature;BMP_pressure;BME280_temperature;BME280_humidity;BME280_pressure;Samples;Min_cycle;Max_cycle;Signal;HPM_P1;HPM_P2
2023/07/09 00:01:47;;;;;;;13.63;10.47;;;13.00;99.90;12.30;101047;;;;572405;250;24149;-79
2023/07/09 00:04:15;;;;;;;17.30;10.30;;;13.00;99.90;12.30;101039;;;;571200;250;24131;-79
2023/07/09 00:06:43;;;;;;;14.30;11.00;;;13.00;99.90;12.30;101042;;;;571175;250;24090;-77
2023/07/09 00:09:20;;;;;;;16.10;10.77;;;13.00;99.90;12.30;101041;;;;561606;255;24224;-79
2023/07/09 00:11:48;;;;;;;13.97;10.33;;;13.00;99.90;12.30;101034;;;;557934;255;24269;-79
2023/07/09 00:14:19;;;;;;;21.57;12.27;;;13.00;99.90;12.30;101037;;;;558526;246;24141;-79
2023/07/09 00:16:44;;;;;;;15.93;11.23;;;12.90;99.90;12.20;101031;;;;564022;250;25164;-78
2023/07/09 00:19:17;;;;;;;21.33;12.70;;;12.90;99.90;12.20;101030;;;;565541;250;24176;-79
2023/07/09 00:21:44;;;;;;;14.97;12.23;;;12.90;99.90;12.20;101024;;;;572986;250;24157;-78
2023/07/09 00:24:10;;;;;;;17.03;12.53;;;12.90;99.90;12.20;101032;;;;579741;247;24155;-79
2023/07/09 00:26:41;;;;;;;17.33;12.60;;;12.90;99.90;12.30;101028;;;;573258;247;24140;-78
2023/07/09 00:29:06;;;;;;;19.77;14.20;;;12.90;99.90;12.30;101034;;;;553705;255;24130;-79
2023/07/09 00:31:34;;;;;;;23.67;15.60;;;12.90;99.90;12.30;101033;;;;562511;251;24181;-79
2023/07/09 00:34:03;;;;;;;19.23;14.97;;;12.90;99.90;12.30;101026;;;;573031;250;24115;-79
2023/07/09 00:36:33;;;;;;;19.17;14.17;;;12.90;99.90;12.30;101029;;;;571527;250;24147;-79
2023/07/09 00:39:04;;;;;;;16.20;13.07;;;12.90;99.90;12.20;101037;;;;572475;250;24166;-79
2023/07/09 00:41:26;;;;;;;17.97;13.00;;;12.90;99.90;12.20;101036;;;;561641;250;24151;-79
2023/07/09 00:43:57;;;;;;;22.77;13.10;;;12.90;99.90;12.20;101034;;;;572531;250;24166;-79
2023/07/09 00:46:23;;;;;;;19.77;12.73;;;12.90;99.90;12.20;101046;;;;573037;250;24195;-79
2023/07/09 00:49:00;;;;;;;17.30;12.43;;;12.80;99.90;12.10;101041;;;;573052;247;24157;-79
2023/07/09 00:51:29;;;;;;;17.57;11.93;;;12.80;99.90;12.10;101046;;;;572992;250;24129;-79
2023/07/09 00:54:00;;;;;;;20.80;12.80;;;12.80;99.90;12.10;101044;;;;572740;250;24182;-79
2023/07/09 00:56:31;;;;;;;16.03;12.23;;;12.70;99.90;12.10;101034;;;;571910;248;24174;-79
2023/07/09 00:59:01;;;;;;;21.23;13.70;;;12.70;99.90;12.00;101037;;;;563203;250;24181;-79
2023/07/09 01:01:28;;;;;;;20.43;11.83;;;12.70;99.90;12.00;101042;;;;572718;247;24146;-79
2023/07/09 01:03:58;;;;;;;18.03;11.47;;;12.70;99.90;12.00;101035;;;;571502;250;25164;-79
2023/07/09 01:06:44;;;;;;;15.77;11.97;;;12.60;99.90;12.00;101039;;;;572744;250;24155;-79
2023/07/09 01:09:12;;;;;;;19.90;11.73;;;12.60;99.90;11.90;101038;;;;572086;250;24120;-78
2023/07/09 01:11:39;;;;;;;13.43;11.63;;;12.60;99.90;11.90;101038;;;;572767;250;25203;-79
2023/07/09 01:14:07;;;;;;;24.17;17.33;;;12.60;99.90;11.90;101026;;;;566641;250;35459;-79
2023/07/09 01:16:38;;;;;;;30.67;22.27;;;12.60;99.90;11.90;101032;;;;572652;248;24162;-78
2023/07/09 01:19:06;;;;;;;37.13;25.17;;;12.60;99.90;11.90;101029;;;;572253;250;24172;-78
2023/07/09 01:21:37;;;;;;;32.83;25.17;;;12.60;99.90;11.90;101030;;;;572276;250;24117;-78
2023/07/09 01:24:14;;;;;;;27.03;18.50;;;12.60;99.90;11.90;101031;;;;561683;250;24143;-79
2023/07/09 01:26:43;;;;;;;34.00;22.77;;;12.60;99.90;11.90;101030;;;;572703;250;24333;-79
2023/07/09 01:29:13;;;;;;;23.53;19.70;;;12.60;99.90;11.90;101027;;;;572141;249;24259;-79
2023/07/09 01:31:39;;;;;;;20.57;15.37;;;12.60;99.90;11.90;101025;;;;572201;250;24139;-78
2023/07/09 01:34:08;;;;;;;24.25;18.73;;;12.60;99.90;12.00;101030;;;;568380;250;35494;-79
2023/07/09 01:36:37;;;;;;;22.17;13.47;;;12.60;99.90;11.90;101033;;;;571910;250;24087;-78
2023/07/09 01:39:05;;;;;;;17.07;11.40;;;12.60;99.90;11.90;101041;;;;572668;247;24115;-78
2023/07/09 01:41:34;;;;;;;16.57;11.77;;;12.60;99.90;11.90;101037;;;;571680;250;24111;-79
2023/07/09 01:44:04;;;;;;;20.00;11.80;;;12.50;99.90;11.80;101033;;;;571660;250;25161;-79
2023/07/09 01:46:31;;;;;;;16.97;11.90;;;12.50;99.90;11.80;101032;;;;571663;250;24124;-79
2023/07/09 01:49:00;;;;;;;17.53;11.67;;;12.50;99.90;11.80;101027;;;;571701;250;24169;-79
2023/07/09 01:51:29;;;;;;;14.67;10.37;;;12.50;99.90;11.80;101032;;;;571830;250;24103;-79
2023/07/09 01:53:59;;;;;;;16.93;10.40;;;12.50;99.90;11.80;101034;;;;573013;250;24122;-79
2023/07/09 01:56:29;;;;;;;15.17;10.57;;;12.50;99.90;11.80;101034;;;;571798;250;24126;-78
2023/07/09 01:59:01;;;;;;;13.03;10.67;;;12.40;99.90;11.80;101037;;;;572578;247;24166;-78
2023/07/09 02:01:25;;;;;;;15.57;12.87;;;12.40;99.90;11.80;101053;;;;571358;250;24149;-79
2023/07/09 02:03:52;;;;;;;15.37;12.77;;;12.40;99.90;11.80;101050;;;;571524;250;24122;-80
2023/07/09 02:06:20;;;;;;;19.43;14.50;;;12.40;99.90;11.70;101043;;;;571199;250;24124;-78
2023/07/09 02:08:48;;;;;;;17.40;13.37;;;12.40;99.90;11.70;101052;;;;572609;250;24117;-78
2023/07/09 02:11:16;;;;;;;14.83;13.27;;;12.40;99.90;11.70;101055;;;;571169;247;24145;-78
2023/07/09 02:13:44;;;;;;;18.50;11.83;;;12.40;99.90;11.80;101049;;;;571058;250;24303;-78
2023/07/09 02:16:12;;;;;;;17.27;11.07;;;12.40;99.90;11.80;101058;;;;571202;250;24106;-78
2023/07/09 02:18:39;;;;;;;22.40;12.70;;;12.50;99.90;11.80;101057;;;;571040;250;24157;-79
2023/07/09 02:21:07;;;;;;;20.83;13.13;;;12.50;99.90;11.80;101044;;;;571591;250;24160;-79
2023/07/09 02:23:35;;;;;;;21.73;13.47;;;12.50;99.90;11.80;101049;;;;571561;250;24138;-79
2023/07/09 02:26:03;;;;;;;20.43;13.03;;;12.50;99.90;11.80;101047;;;;571341;250;24108;-79
2023/07/09 02:28:31;;;;;;;16.30;12.20;;;12.50;99.90;11.90;101047;;;;571230;250;24136;-80
2023/07/09 02:30:59;;;;;;;21.17;13.80;;;12.50;99.90;11.90;101044;;;;572359;250;24218;-79
2023/07/09 02:33:27;;;;;;;16.10;12.43;;;12.60;99.90;12.00;101048;;;;571187;250;24160;-79
2023/07/09 02:35:55;;;;;;;17.23;12.80;;;12.60;99.90;12.00;101045;;;;571144;250;24106;-77
2023/07/09 02:38:23;;;;;;;16.97;12.67;;;12.60;99.90;12.00;101045;;;;571274;250;24148;-78
2023/07/09 02:40:53;;;;;;;18.97;12.63;;;12.70;99.90;12.10;101057;;;;571643;249;24139;-79
2023/07/09 02:43:19;;;;;;;18.20;11.57;;;12.70;99.90;12.20;101057;;;;572352;250;24136;-79
2023/07/09 02:45:47;;;;;;;19.57;11.87;;;12.80;99.90;12.20;101063;;;;572067;250;24126;-79
2023/07/09 02:48:15;;;;;;;16.40;12.23;;;12.80;99.90;12.30;101069;;;;571880;250;24100;-78
2023/07/09 02:50:42;;;;;;;17.13;12.73;;;12.90;99.90;12.30;101068;;;;572217;250;24104;-79
2023/07/09 02:53:10;;;;;;;19.00;12.90;;;12.90;99.90;12.30;101069;;;;572042;250;24127;-79
2023/07/09 02:55:38;;;;;;;17.13;12.50;;;13.00;99.90;12.40;101069;;;;572115;250;24111;-79
2023/07/09 02:58:06;;;;;;;17.23;12.37;;;13.00;99.90;12.40;101058;;;;571708;249;24142;-79
2023/07/09 03:00:34;;;;;;;17.47;12.03;;;13.00;99.90;12.30;101063;;;;571321;250;24101;-78
2023/07/09 03:03:06;;;;;;;16.43;12.27;;;13.00;99.90;12.30;101057;;;;571442;250;24104;-78
2023/07/09 03:05:30;;;;;;;16.43;11.90;;;12.90;99.90;12.30;101061;;;;572356;250;24133;-78
2023/07/09 03:07:58;;;;;;;16.50;11.67;;;13.00;99.90;12.40;101069;;;;571526;250;24114;-79
2023/07/09 03:10:26;;;;;;;13.93;11.13;;;13.00;99.90;12.40;101068;;;;571354;250;24199;-79
2023/07/09 03:12:55;;;;;;;14.73;10.80;;;13.00;99.90;12.40;101062;;;;568521;250;24161;-79
2023/07/09 03:15:23;;;;;;;19.83;14.45;;;13.00;99.90;12.50;101066;;;;566444;250;35434;-78
2023/07/09 03:17:50;;;;;;;15.07;10.80;;;13.10;99.90;12.60;101054;;;;571109;250;24167;-79
2023/07/09 03:20:18;;;;;;;13.03;10.20;;;13.20;99.90;12.70;101058;;;;571435;250;24166;-79
2023/07/09 03:22:46;;;;;;;14.83;10.50;;;13.30;99.90;12.80;101057;;;;571151;250;24154;-79
2023/07/09 03:25:14;;;;;;;11.87;10.37;;;13.40;99.90;13.00;101055;;;;571465;250;24111;-80
2023/07/09 03:27:43;;;;;;;18.97;10.80;;;13.80;99.90;13.30;101054;;;;571504;250;24111;-79
2023/07/09 03:30:15;;;;;;;18.77;10.73;;;14.30;99.90;13.90;101059;;;;571488;250;24148;-80
2023/07/09 03:32:40;;;;;;;14.33;11.00;;;14.20;99.90;14.60;101073;;;;563948;250;24139;-79
2023/07/09 03:35:11;;;;;;;12.97;10.33;;;14.90;99.90;15.30;101077;;;;571539;250;24170;-80
2023/07/09 03:37:37;;;;;;;16.33;10.07;;;15.70;99.90;16.10;101089;;;;571916;250;24179;-79
2023/07/09 03:40:07;;;;;;;12.17;8.53;;;16.50;99.90;17.20;101093;;;;571479;250;24116;-79
2023/07/09 03:42:31;;;;;;;10.30;7.63;;;17.50;99.90;18.10;101090;;;;572486;250;24222;-79
2023/07/09 03:44:59;;;;;;;9.00;7.47;;;18.50;99.90;18.80;101102;;;;572797;250;24130;-81
2023/07/09 03:47:27;;;;;;;10.73;7.20;;;19.20;99.90;19.10;101091;;;;572723;247;24153;-78
2023/07/09 03:49:55;;;;;;;11.13;7.47;;;19.70;99.90;18.90;101085;;;;572760;248;23137;-79
2023/07/09 03:52:23;;;;;;;10.40;7.70;;;19.60;99.90;18.50;101083;;;;572770;249;24158;-80
2023/07/09 03:54:51;;;;;;;6.87;6.20;;;19.40;99.90;18.20;101090;;;;574127;250;24236;-80
2023/07/09 03:57:19;;;;;;;7.20;6.50;;;19.00;99.90;18.30;101084;;;;573631;246;24097;-79
2023/07/09 03:59:47;;;;;;;10.47;6.60;;;18.90;99.90;18.30;101083;;;;573178;250;24242;-79
2023/07/09 04:02:16;;;;;;;7.73;6.10;;;19.30;99.90;18.80;101082;;;;573077;250;24166;-79
2023/07/09 04:04:45;;;;;;;7.93;6.33;;;20.10;99.90;19.70;101089;;;;572819;250;24124;-79
2023/07/09 04:07:13;;;;;;;6.90;5.20;;;20.10;99.90;20.50;101095;;;;573002;250;24179;-79
2023/07/09 04:09:41;;;;;;;6.30;5.70;;;21.00;99.90;21.50;101090;;;;572921;250;24173;-79
2023/07/09 04:12:11;;;;;;;5.53;5.03;;;21.90;99.90;22.60;101094;;;;572570;250;24105;-79
2023/07/09 04:14:40;;;;;;;9.07;5.40;;;23.10;99.90;23.50;101100;;;;561750;255;24151;-80
2023/07/09 04:17:08;;;;;;;6.90;5.33;;;25.00;99.90;24.40;101091;;;;571926;250;24151;-79
2023/07/09 04:19:36;;;;;;;6.30;5.70;;;25.80;99.90;25.20;101086;;;;562587;250;23182;-79
2023/07/09 04:22:04;;;;;;;6.27;5.00;;;25.80;99.90;26.00;101090;;;;562554;250;24125;-79
2023/07/09 04:24:33;;;;;;;8.43;4.57;;;26.70;99.90;26.90;101093;;;;572672;250;23131;-79
2023/07/09 04:27:02;;;;;;;5.53;4.45;;;28.40;99.90;27.60;101100;;;;572644;248;23129;-79
2023/07/09 04:29:35;;;;;;;5.55;4.78;;;28.30;99.90;28.30;101111;;;;562817;250;23172;-80
2023/07/09 04:31:59;;;;;;;6.85;5.32;;;29.10;97.90;28.90;101110;;;;572254;250;24127;-80
2023/07/09 04:34:30;;;;;;;5.40;4.30;;;29.70;94.90;29.40;101117;;;;562699;250;23179;-79
2023/07/09 04:36:55;;;;;;;5.32;4.62;;;30.30;92.20;28.60;101127;;;;562550;250;23163;-78
2023/07/09 04:39:23;;;;;;;7.60;4.57;;;29.80;90.20;27.30;101122;;;;562727;250;23118;-80
2023/07/09 04:41:51;;;;;;;6.55;4.90;;;28.60;90.50;26.90;101119;;;;562758;250;23158;-80
2023/07/09 04:44:19;;;;;;;4.72;4.28;;;27.90;91.90;27.70;101119;;;;562721;250;23115;-79
2023/07/09 04:46:49;;;;;;;6.68;5.00;;;28.40;91.90;27.60;101114;;;;562679;250;23124;-80
2023/07/09 04:49:16;;;;;;;6.15;4.95;;;28.50;91.10;27.20;101120;;;;562720;250;23115;-78
2023/07/09 04:51:45;;;;;;;5.50;4.75;;;27.80;91.40;27.10;101117;;;;562755;250;25291;-79
2023/07/09 04:54:14;;;;;;;4.57;4.20;;;27.80;91.40;27.20;101126;;;;562439;250;23176;-79
2023/07/09 04:56:47;;;;;;;7.25;4.80;;;28.00;91.40;27.30;101125;;;;562370;250;23147;-80
2023/07/09 04:59:11;;;;;;;4.70;4.28;;;28.10;91.40;27.90;101121;;;;562480;250;24174;-80
2023/07/09 05:01:39;;;;;;;7.62;4.97;;;28.50;91.30;28.30;101123;;;;572194;250;23147;-79
2023/07/09 05:04:07;;;;;;;5.87;4.68;;;29.10;89.90;28.10;101116;;;;562881;249;24111;-79
2023/07/09 05:06:37;;;;;;;5.72;4.53;;;29.00;88.30;28.00;101115;;;;573748;250;23114;-79
2023/07/09 05:09:06;;;;;;;4.62;4.22;;;29.50;87.20;28.70;101123;;;;573180;250;24163;-79
2023/07/09 05:11:32;;;;;;;5.15;4.37;;;30.30;85.80;29.70;101120;;;;573055;250;23146;-80
2023/07/09 05:14:00;;;;;;;4.75;4.00;;;30.30;85.00;31.30;101128;;;;564097;250;23130;-80
2023/07/09 05:16:28;;;;;;;4.47;3.97;;;32.00;81.90;33.10;101125;;;;562760;250;23145;-80
2023/07/09 05:18:56;;;;;;;4.50;4.10;;;33.80;76.50;33.90;101132;;;;562842;250;23150;-79
2023/07/09 05:21:24;;;;;;;4.43;3.97;;;34.80;69.90;34.20;101140;;;;562786;250;23153;-80
2023/07/09 05:23:52;;;;;;;8.55;4.47;;;35.20;66.70;34.60;101144;;;;562757;250;23122;-79
2023/07/09 05:26:19;;;;;;;4.25;3.85;;;35.70;64.80;33.80;101149;;;;557647;250;35475;-80
2023/07/09 05:28:47;;;;;;;4.72;4.12;;;35.00;62.80;32.70;101143;;;;563039;250;23134;-79
2023/07/09 05:31:15;;;;;;;5.07;3.92;;;34.00;64.00;32.20;101145;;;;562807;250;23137;-80
2023/07/09 05:33:43;;;;;;;4.30;3.90;;;33.30;65.40;31.40;101152;;;;562906;250;23239;-79
2023/07/09 05:36:15;;;;;;;4.72;3.70;;;31.70;68.30;30.70;101137;;;;563009;250;24193;-80
2023/07/09 05:38:40;;;;;;;4.05;3.65;;;31.60;68.20;30.40;101142;;;;562992;250;23122;-79
2023/07/09 05:41:08;;;;;;;5.70;4.20;;;31.20;69.70;29.90;101140;;;;562739;247;24184;-80
2023/07/09 05:43:36;;;;;;;3.60;3.30;;;30.60;70.60;29.30;101135;;;;562648;250;23122;-80
2023/07/09 05:46:04;;;;;;;8.60;3.80;;;30.00;72.10;30.30;101151;;;;562589;250;23126;-79
2023/07/09 05:48:34;;;;;;;4.32;3.90;;;30.60;73.50;31.50;101145;;;;572652;250;23128;-79
2023/07/09 05:50:59;;;;;;;4.35;3.60;;;31.80;71.40;32.10;101150;;;;562608;250;23153;-79
2023/07/09 05:53:27;;;;;;;3.65;3.45;;;32.50;68.80;33.30;101161;;;;562649;250;23123;-80
2023/07/09 05:55:55;;;;;;;5.07;4.20;;;33.50;67.30;35.20;101160;;;;562221;250;23174;-80
2023/07/09 05:58:26;;;;;;;3.85;3.40;;;35.40;64.20;37.20;101165;;;;562668;250;23163;-81
2023/07/09 06:00:57;;;;;;;8.45;3.60;;;37.40;59.30;38.70;101170;;;;572456;250;23224;-81
2023/07/09 06:03:22;;;;;;;3.60;3.30;;;39.00;55.90;38.50;101161;;;;572612;250;23129;-80
2023/07/09 06:05:50;;;;;;;5.47;3.15;;;39.10;53.40;38.80;101173;;;;572723;250;24178;-81
2023/07/09 06:08:18;;;;;;;2.53;2.33;;;39.40;52.60;39.70;101173;;;;562659;250;23135;-81
2023/07/09 06:11:01;;;;;;;3.62;2.03;;;40.30;51.20;41.00;101175;;;;562636;250;25292;-81
2023/07/09 06:13:30;;;;;;;1.83;1.77;;;41.40;48.90;42.20;101175;;;;572015;250;23122;-81
2023/07/09 06:15:57;;;;;;;2.00;1.85;;;42.50;46.30;43.10;101167;;;;564760;249;23167;-80
2023/07/09 06:18:28;;;;;;;2.37;1.83;;;43.50;44.40;43.90;101169;;;;573334;247;24201;-81
2023/07/09 06:20:53;;;;;;;2.17;1.70;;;45.00;41.40;44.50;101164;;;;572872;250;23162;-80
2023/07/09 06:23:25;;;;;;;2.65;1.95;;;45.50;40.30;45.00;101162;;;;573597;247;23150;-80
2023/07/09 06:25:54;;;;;;;1.62;1.52;;;46.30;39.90;45.80;101168;;;;573177;250;24183;-80
2023/07/09 06:28:19;;;;;;;1.52;1.48;;;46.20;39.70;46.50;101169;;;;562689;250;23134;-81
2023/07/09 06:30:47;;;;;;;1.92;1.80;;;46.90;38.70;47.00;101168;;;;572603;250;23126;-81
2023/07/09 06:33:17;;;;;;;2.60;1.62;;;47.40;38.00;47.50;101164;;;;573327;247;23153;-80
2023/07/09 06:35:54;;;;;;;1.75;1.65;;;47.90;37.30;48.00;101166;;;;572819;250;23125;-80
2023/07/09 06:38:19;;;;;;;1.90;1.80;;;48.40;36.80;48.30;101168;;;;564424;250;23173;-81
2023/07/09 06:40:47;;;;;;;1.80;1.70;;;48.70;35.90;48.70;101173;;;;564420;250;23117;-79
2023/07/09 06:43:16;;;;;;;1.75;1.65;;;49.40;35.00;49.00;101181;;;;562999;250;23238;-80
2023/07/09 06:45:56;;;;;;;1.67;1.58;;;49.80;34.40;49.40;101177;;;;562928;250;23185;-80
2023/07/09 06:48:21;;;;;;;1.58;1.48;;;49.70;34.30;49.70;101175;;;;563061;250;23130;-80
2023/07/09 06:50:49;;;;;;;1.77;1.67;;;50.10;34.30;50.00;101172;;;;562861;250;23182;-81
2023/07/09 06:53:17;;;;;;;1.52;1.42;;;50.40;33.50;50.30;101175;;;;572711;247;24172;-80
2023/07/09 06:55:45;;;;;;;4.30;1.70;;;50.70;33.30;50.40;101169;;;;562621;250;23151;-80
2023/07/09 06:58:13;;;;;;;1.60;1.60;;;50.80;33.00;50.50;101171;;;;572367;247;23214;-81
2023/07/09 07:00:42;;;;;;;2.35;1.90;;;51.00;32.40;50.50;101175;;;;572039;250;23204;-79
2023/07/09 07:03:10;;;;;;;1.80;1.70;;;51.20;32.70;50.70;101173;;;;562778;250;23149;-81
2023/07/09 07:05:39;;;;;;;1.90;1.80;;;51.10;32.60;50.80;101174;;;;572170;250;23126;-80
2023/07/09 07:08:06;;;;;;;1.90;1.80;;;51.20;32.10;50.90;101181;;;;563863;250;24146;-80
2023/07/09 07:10:34;;;;;;;1.40;1.40;;;51.30;32.10;51.10;101184;;;;562647;250;23115;-80
2023/07/09 07:13:02;;;;;;;2.28;1.80;;;51.50;32.00;51.40;101188;;;;562767;250;23162;-81
2023/07/09 07:15:30;;;;;;;1.62;1.40;;;51.70;32.20;51.60;101180;;;;562758;250;23125;-81
2023/07/09 07:17:58;;;;;;;1.70;1.60;;;51.80;31.60;51.70;101183;;;;562718;250;23132;-81
2023/07/09 07:20:26;;;;;;;2.28;1.60;;;52.00;31.80;52.10;101183;;;;557889;250;35390;-80
2023/07/09 07:22:54;;;;;;;1.45;1.40;;;52.50;31.10;52.10;101174;;;;562756;250;23143;-81
2023/07/09 07:25:23;;;;;;;1.90;1.80;;;52.40;30.50;52.00;101172;;;;567951;247;41206;-80
2023/07/09 07:27:55;;;;;;;1.60;1.50;;;52.40;30.90;51.90;101178;;;;568081;249;46354;-81
2023/07/09 07:30:20;;;;;;;2.35;1.40;;;52.30;30.80;51.90;101177;;;;563543;250;23188;-81
2023/07/09 07:32:48;;;;;;;1.73;1.25;;;52.40;31.40;52.10;101179;;;;563308;250;24205;-81
2023/07/09 07:35:20;;;;;;;1.52;1.52;;;52.50;30.20;52.30;101181;;;;573129;250;23241;-81
2023/07/09 07:37:43;;;;;;;1.40;1.40;;;52.50;30.60;52.30;101182;;;;572601;250;23152;-81
2023/07/09 07:40:11;;;;;;;1.77;1.67;;;52.60;30.20;52.40;101181;;;;562879;250;24150;-80
2023/07/09 07:42:42;;;;;;;1.60;1.60;;;52.70;30.20;52.80;101189;;;;562902;250;23128;-81
2023/07/09 07:45:11;;;;;;;1.95;1.85;;;53.00;29.90;52.90;101185;;;;572040;250;23130;-79
2023/07/09 07:47:35;;;;;;;1.35;1.35;;;53.20;29.80;53.10;101184;;;;563729;250;23152;-81
2023/07/09 07:50:06;;;;;;;1.62;1.50;;;53.40;29.80;53.40;101190;;;;562603;250;24158;-81
2023/07/09 07:52:32;;;;;;;1.73;1.62;;;53.90;29.30;53.70;101191;;;;571830;250;23177;-81
2023/07/09 07:55:00;;;;;;;1.67;1.65;;;54.00;29.20;53.80;101188;;;;562662;250;24153;-82
2023/07/09 07:57:28;;;;;;;1.85;1.75;;;54.00;29.20;53.90;101195;;;;562484;247;23165;-81
2023/07/09 07:59:56;;;;;;;1.73;1.62;;;54.10;29.10;53.90;101189;;;;563048;250;23160;-82
2023/07/09 08:02:24;;;;;;;1.67;1.67;;;54.10;28.90;54.10;101193;;;;562917;250;23158;-81
2023/07/09 08:04:52;;;;;;;1.90;1.70;;;54.30;29.10;54.00;101201;;;;559399;250;46369;-81
2023/07/09 08:07:20;;;;;;;1.67;1.60;;;54.30;29.30;53.80;101201;;;;572696;250;23145;-81
2023/07/09 08:09:48;;;;;;;1.92;1.83;;;54.10;29.30;54.00;101197;;;;572788;250;24130;-82
2023/07/09 08:12:16;;;;;;;1.60;1.60;;;54.10;29.40;54.00;101198;;;;562726;250;23096;-81
2023/07/09 08:14:44;;;;;;;1.90;1.80;;;54.00;29.10;53.90;101198;;;;562756;250;23166;-81
2023/07/09 08:17:12;;;;;;;1.67;1.67;;;54.00;29.10;53.90;101194;;;;572745;250;24147;-81
2023/07/09 08:19:49;;;;;;;1.98;1.75;;;54.00;29.10;54.20;101195;;;;572863;250;24146;-81
2023/07/09 08:22:18;;;;;;;2.08;1.90;;;54.30;29.20;54.20;101194;;;;563265;250;23180;-81
2023/07/09 08:24:45;;;;;;;1.60;1.50;;;54.30;28.60;54.20;101190;;;;562823;250;23113;-80
2023/07/09 08:27:13;;;;;;;2.00;1.90;;;54.30;29.00;54.40;101189;;;;562789;250;23126;-80
2023/07/09 08:29:42;;;;;;;2.08;1.90;;;54.80;28.40;54.60;101190;;;;562732;250;24157;-81
2023/07/09 08:32:10;;;;;;;1.80;1.70;;;54.80;28.70;54.40;101180;;;;572460;250;23149;-80
2023/07/09 08:34:38;;;;;;;2.10;1.90;;;54.80;28.60;54.40;101182;;;;572314;250;23183;-81
2023/07/09 08:37:06;;;;;;;1.95;1.75;;;54.80;28.60;54.60;101184;;;;571682;250;23180;-81
2023/07/09 08:39:34;;;;;;;2.12;1.92;;;54.80;28.50;54.50;101187;;;;564183;250;23189;-81
2023/07/09 08:42:09;;;;;;;2.20;2.10;;;54.80;28.50;54.60;101179;;;;563501;250;23120;-81
2023/07/09 08:45:03;;;;;;;1.90;1.90;;;54.80;28.40;54.50;101181;;;;564233;250;23132;-81
2023/07/09 08:47:55;;;;;;;2.33;2.22;;;54.80;28.40;54.30;101177;;;;573121;250;23164;-82
2023/07/09 08:50:20;;;;;;;2.00;1.90;;;54.60;28.70;54.50;101179;;;;565533;250;23138;-80
2023/07/09 08:52:48;;;;;;;1.70;1.70;;;54.60;28.80;54.60;101180;;;;572572;250;23221;-81
2023/07/09 08:55:16;;;;;;;2.35;2.25;;;54.90;28.70;54.90;101183;;;;563218;250;23175;-81
2023/07/09 08:57:50;;;;;;;4.22;1.90;;;55.30;28.40;55.00;101186;;;;571972;247;23126;-80
2023/07/09 09:00:31;;;;;;;2.20;2.10;;;55.50;28.50;55.10;101182;;;;569142;247;23152;-81
2023/07/09 09:03:11;;;;;;;2.10;2.10;;;55.40;28.40;55.30;101175;;;;563298;250;23171;-81
2023/07/09 09:05:39;;;;;;;2.17;2.17;;;55.70;28.30;55.10;101179;;;;572900;250;23172;-81
2023/07/09 09:08:28;;;;;;;2.10;2.00;;;55.60;28.20;55.00;101174;;;;572806;248;23220;-82
2023/07/09 09:10:59;;;;;;;2.05;2.05;;;55.40;28.10;55.10;101172;;;;563176;250;23162;-81
2023/07/09 09:13:28;;;;;;;2.37;2.28;;;55.50;28.60;54.80;101180;;;;572265;250;23173;-82
2023/07/09 09:15:55;;;;;;;1.90;1.80;;;55.40;28.50;55.10;101181;;;;572726;248;23148;-81
2023/07/09 09:18:26;;;;;;;2.08;2.00;;;55.80;29.20;55.20;101170;;;;572090;250;24230;-82
2023/07/09 09:21:04;;;;;;;2.00;1.90;;;56.40;28.00;55.50;101174;;;;572673;247;24220;-81
2023/07/09 09:23:41;;;;;;;2.55;2.35;;;56.30;27.90;55.60;101178;;;;572565;250;23195;-82
2023/07/09 09:26:17;;;;;;;3.00;2.12;;;56.60;28.10;55.50;101177;;;;563755;250;23152;-81
2023/07/09 09:28:45;;;;;;;1.70;1.70;;;56.50;28.10;55.70;101183;;;;572178;247;23139;-81
2023/07/09 09:31:13;;;;;;;2.30;2.20;;;56.80;28.00;55.60;101179;;;;562397;250;23136;-81
2023/07/09 09:33:44;;;;;;;2.30;2.20;;;56.70;27.40;55.50;101182;;;;572235;250;23200;-81
2023/07/09 09:36:21;;;;;;;2.35;2.25;;;56.70;27.60;55.50;101178;;;;567462;247;35378;-80
2023/07/09 09:38:50;;;;;;;2.55;2.40;;;56.70;27.80;55.00;101182;;;;572324;250;24215;-81
2023/07/09 09:41:17;;;;;;;2.30;2.05;;;56.50;27.30;54.70;101175;;;;571580;250;23164;-82
2023/07/09 09:43:46;;;;;;;2.17;2.08;;;55.90;27.90;54.40;101178;;;;572308;250;23145;-81
2023/07/09 09:46:20;;;;;;;5.45;2.33;;;55.90;27.90;54.30;101182;;;;562628;250;23118;-81
2023/07/09 09:48:47;;;;;;;2.15;2.05;;;55.70;27.80;53.60;101179;;;;572306;247;23229;-81
2023/07/09 09:51:16;;;;;;;1.90;1.80;;;55.30;27.50;52.90;101180;;;;573385;247;23217;-81
2023/07/09 09:53:49;;;;;;;3.15;2.30;;;54.70;27.80;53.20;101170;;;;573438;250;23153;-81
2023/07/09 09:56:20;;;;;;;2.00;1.90;;;54.60;28.00;53.40;101173;;;;572887;250;23111;-82
2023/07/09 09:58:48;;;;;;;3.10;2.20;;;54.80;28.20;53.40;101181;;;;572527;247;23128;-81
2023/07/09 10:01:16;;;;;;;3.45;1.87;;;54.90;28.00;53.30;101176;;;;572538;250;23230;-81
2023/07/09 10:03:44;;;;;;;2.75;2.00;;;55.00;27.50;53.50;101177;;;;573195;250;23118;-81
2023/07/09 10:06:20;;;;;;;2.65;1.90;;;55.10;27.50;52.70;101171;;;;564185;250;23169;-81
2023/07/09 10:08:56;;;;;;;2.33;2.12;;;54.30;27.80;52.40;101173;;;;573150;250;23121;-81
2023/07/09 10:11:47;;;;;;;3.37;2.30;;;54.30;27.80;52.40;101172;;;;562742;250;23178;-82
2023/07/09 10:14:47;;;;;;;1.90;1.80;;;53.90;27.90;52.00;101177;;;;572422;248;24161;-81
2023/07/09 10:17:43;;;;;;;2.15;2.00;;;53.80;27.90;51.10;101173;;;;559469;250;24163;-81
2023/07/09 10:20:38;;;;;;;2.20;2.10;;;52.90;28.10;50.40;101173;;;;573025;250;23178;-81
2023/07/09 10:23:37;;;;;;;2.20;1.85;;;52.10;28.30;48.40;101179;;;;573029;250;23136;-79
2023/07/09 10:26:28;;;;;;;2.15;2.00;;;50.80;28.90;48.00;101177;;;;575746;249;23104;-80
2023/07/09 10:28:58;;;;;;;1.75;1.67;;;49.80;29.90;47.20;101172;;;;563218;254;23146;-80
2023/07/09 10:31:54;;;;;;;2.10;2.00;;;49.10;29.40;45.80;101175;;;;562923;254;23143;-80
2023/07/09 10:34:52;;;;;;;2.62;1.80;;;47.80;30.10;44.80;101174;;;;564185;254;23158;-80
2023/07/09 10:37:31;;;;;;;1.83;1.73;;;46.50;31.00;44.10;101184;;;;572776;250;23174;-81
2023/07/09 10:39:59;;;;;;;1.45;1.42;;;45.70;31.60;43.00;101181;;;;553305;255;23179;-81
2023/07/09 10:42:39;;;;;;;2.10;2.00;;;44.80;32.10;41.40;101181;;;;567654;250;35341;-81
2023/07/09 10:45:13;;;;;;;2.72;2.50;;;43.50;33.30;40.40;101176;;;;571702;250;24137;-80
2023/07/09 10:47:55;;;;;;;1.50;1.40;;;42.00;35.10;39.40;101177;;;;571440;250;23236;-80
2023/07/09 10:50:32;;;;;;;1.75;1.65;;;40.50;35.70;38.20;101173;;;;553805;255;23183;-81
2023/07/09 10:53:02;;;;;;;1.70;1.60;;;38.90;37.30;37.20;101175;;;;568659;250;23144;-80
2023/07/09 10:55:33;;;;;;;1.85;1.52;;;37.50;38.50;35.60;101178;;;;572595;250;23263;-79
2023/07/09 10:58:07;;;;;;;1.45;1.40;;;36.20;39.40;34.40;101172;;;;572316;247;23159;-80
2023/07/09 11:00:35;;;;;;;1.55;1.42;;;35.10;40.80;33.30;101173;;;;561991;250;23129;-79
2023/07/09 11:03:20;;;;;;;2.28;2.15;;;34.00;42.10;32.60;101166;;;;573794;249;23131;-79
2023/07/09 11:05:48;;;;;;;1.48;1.37;;;33.30;43.40;31.90;101167;;;;572905;250;23154;-79
2023/07/09 11:08:22;;;;;;;1.70;1.60;;;31.70;46.20;31.20;101166;;;;573436;250;23125;-80
2023/07/09 11:10:53;;;;;;;2.35;1.70;;;31.70;46.20;30.40;101168;;;;573633;250;23173;-79
2023/07/09 11:13:40;;;;;;;1.25;1.25;;;31.00;46.70;29.60;101155;;;;573057;250;23176;-79
2023/07/09 11:16:11;;;;;;;1.50;1.40;;;30.20;47.80;29.00;101164;;;;573223;250;24161;-80
2023/07/09 11:18:35;;;;;;;4.30;1.70;;;29.60;49.40;28.60;101161;;;;571863;250;24117;-80